Du har inga inställningar för hoppväder.nu

Hoppväder.nu

Senast uppdaterat 18:28

UTC-tid

2022-01-17 kl. 17:28


Sol och måne

Solen går upp 8:45 och går ner 15:32 (beräknade cirkatider)
Nästa fullmåne blir imorgon!

METAR

ESSD (Borlänge)
(8 minuter sedan)
ESSD 171720Z AUTO 30017KT 9999 NCD 01/M05 Q1016=



ESOE (Örebro)
(8 minuter sedan)
ESOE 171720Z 30010KT CAVOK 02/M06 Q1017=



ESOW (Västerås)
(8 minuter sedan)
ESOW 171720Z AUTO 31006KT 9999 FEW100/// 01/M06 Q1016=



ESOK (Karlstad)
(8 minuter sedan)
ESOK 171720Z 31006KT CAVOK 01/M09 Q1020=






TAF

ESSD (Borlänge)
(178 minuter sedan)
ESSD 171430Z 1715/1717 29010KT 9999 SCT040=



ESOE (Örebro)
(-2 minuter sedan)
ESOE 171730Z 1718/1723 29012KT CAVOK=



ESOW (Västerås)
(178 minuter sedan)
ESOW 171430Z 1715/1717 29010KT CAVOK=



ESOK (Karlstad)
(-2 minuter sedan)
ESOK 171730Z 1718/1722 29006KT CAVOK=





Kodnycklar till TAF och METAR






LHP

(Borlänge är område se34c i Delområde 1)

Översikt

ÖVERSIKT FÖR OMRÅDE se3 UTFÄRDAD 171235

GÄLLANDE DEN 17 JANUARI 2022 MELLAN 13 OCH 21 UTC


Väderöversikt

En nordvästlig luftström råder över södra Sverige.

Sikt under 5 kilometer eller molnbas under 1000 fot
15-19UTC: Område se31 och se34
19-21UTC: Hela området utom se31


Måttlig eller svår isbildning
Väntas inte förekomma under perioden

Måttlig eller svår turbulens
13-15UTC: Hela området utom se31
15-17UTC: Område se33


Delområde 1

PROGNOS FÖR OMRÅDE se34 UTFÄRDAD 171235
GÄLLANDE DEN 17 JANUARI 2022 MELLAN 13 OCH 21 UTC

Måttlig eller svår turbulens
13-15UTC: Område se34b,se34f: måttlig turbulens SFC - 3000ft.

13-21UTC: Område se34a,se34e,se34d,se34c: Väntas inte förekomma under perioden

15-21UTC: Område se34b,se34f: Väntas inte förekomma under perioden


Måttlig eller svår isbildning
13-21UTC: I hela området: Väntas inte förekomma under perioden

Sikt/Väder/Moln
13-15UTC: Område se34a,se34c: Sikt >8km. Molnbas >2000ft.

13-17UTC: Område se34b,se34f,se34e: Sikt >8km. Molnbas >2000ft.

13-21UTC: Område se34d: Sikt >8km. Molnbas >2000ft.

15-19UTC: Område se34a: Sikt 3km - >8km i snöbyar. Molnbas >2000ft.

15-21UTC: Område se34c: Sikt 3km - >8km i snöbyar. Molnbas >2000ft.

17-19UTC: Område se34b,se34f: Sikt 3km - >8km i snöbyar. Molnbas >2000ft.

17-21UTC: Område se34e: Sikt 3km - >8km i snöbyar. Molnbas >2000ft.

19-21UTC: Område se34b,se34a,se34f: Sikt >8km, lokalt 3km - 5km i snöbyar. Molnbas >2000ft.


Molnöversida
13-15UTC: Område se34a: Ingen prognos

13-17UTC: Område se34b,se34f,se34e: Ingen prognos
Område se34c: Molnöversida > FL125.

13-21UTC: Område se34d: Ingen prognos

15-17UTC: Område se34a: Molnöversida > FL125.

17-21UTC: Område se34b,se34a,se34f,se34e,se34c: Molnöversida FL110.


CB/TCU Moln
13-15UTC: Område se34a,se34c: Väntas inte förekomma under perioden

13-17UTC: Område se34b,se34f,se34e: Väntas inte förekomma under perioden

13-21UTC: Område se34d: Väntas inte förekomma under perioden

15-21UTC: Område se34a,se34c: TCU

17-21UTC: Område se34b,se34f,se34e: TCU


Nollgradersisoterm
13-15UTC: Noll grader SFC - 1500ft.
15-17UTC: Noll grader SFC - 2000ft.
17-19UTC: Noll grader SFC - 1000ft.
19-21UTC: Noll grader SFC - 500ft.

Vind vid marken
13-15UTC: Område se34b: NV/4-30 knop, byar upp till 43 knop.
Område se34f: NV/4-10 knop, byar upp till 23 knop.
Område se34c: V-NV/2-11 knop, byar upp till 23 knop.
Område se34e: V-NV/3-11 knop, byar upp till 22 knop.
Område se34d: NV/4-9 knop, byar upp till 24 knop.
Område se34a: NV/3-21 knop, byar upp till 29 knop.

15-17UTC: Område se34e: V-NV/3-8 knop, byar upp till 18 knop.
Område se34f: V-NV/4-10 knop, byar upp till 18 knop.
Område se34a: V-NV/4-23 knop, byar upp till 30 knop.
Område se34b: V-NV/5-25 knop, byar upp till 35 knop.
Område se34c: V-NV/0-8 knop, byar upp till 20 knop.
Område se34d: V-NV/1-9 knop, byar upp till 21 knop.

17-19UTC: Område se34a: NV/3-23 knop, byar upp till 31 knop.
Område se34b: V-NV/4-25 knop, byar upp till 32 knop.
Område se34c: V-NV/1-12 knop, byar upp till 27 knop.
Område se34d: V-NV/4-13 knop, byar upp till 26 knop.
Område se34f: V-NV/5-11 knop, byar upp till 22 knop.
Område se34e: V-NV/4-12 knop, byar upp till 22 knop.

19-21UTC: Område se34b: NV/4-26 knop, byar upp till 34 knop.
Område se34c: NV/2-12 knop, byar upp till 27 knop.
Område se34a: NV/3-21 knop, byar upp till 28 knop.
Område se34f: NV/3-12 knop, byar upp till 24 knop.
Område se34e: NV/1-12 knop, byar upp till 24 knop.
Område se34d: NV/5-13 knop, byar upp till 27 knop.


Genomsnittlig vind och temperatur för området
2000ft:
13-15UTC: 330/29kt -2.
15-17UTC: 330/31kt -2.
17-19UTC: 330/34kt -2.
19-21UTC: 340/30kt -3.

FL50:
13-15UTC: 350/35kt -8.
15-17UTC: 340/34kt -8.
17-19UTC: 350/36kt -8.
19-21UTC: 360/31kt -9.

FL100:
13-17UTC: 340/45kt -20.
17-19UTC: 340/47kt -20.
19-21UTC: 350/51kt -19.

Lägsta QNH
1004 hPa, stigande.

OBS! endast utbredd måttlig eller svår isbildning och turbulens prognostiseras i LLF.
Avsaknad av isbildning och turbulens i prognosen utesluter inte förekomst av lätt isbildning och turbulens.
För indikation på lätt isbildning, var vänlig kontrollera om prognosen för molntopp ligger högre än nollgradersisotermen.
Förekomst av TCU eller CB medför alltid en risk för måttlig eller svår isbildning och turbulens även om det inte framgår explicit av prognosen.





Spotting

Hur fungerar spotthjälpen och Vindkartan?

Markvind är ca 1-6 m/s med byar på 14 m/s.
Vind på 600 m ca 17 m/s.
Vind på 1500 m ca 19 m/s.
Vind på 3000 m ca 24 m/s.
Rudolf-David flyger ca 17 m/s över marken på finalen.
Du driver ca 1088 m bakåt i frifall. (1451 m)
Lämplig spot är 47 sekunder eller 798 m efter gropen.
(68 s eller 1154 m)
För små grupper eller ensamhoppare bör man vänta 9-12 sekunder mellan grupperna.
För större grupper bör man vänta 18-21 sekunder mellan grupperna.


Vindkartan

Senast uppdaterad 18:28




All data kommer från LFV.se